Time;durP1;ratioP1;P1;durP2;ratioP2;P2;SDS_P1;SDS_P2;PMS_P1;PMS_P2;Temp;Humidity;BMP_temperature;BMP_pressure;BME280_temperature;BME280_humidity;BME280_pressure;Samples;Min_cycle;Max_cycle;Signal;HPM_P1;HPM_P2
2023/08/09 00:02:18;;;;;;;9.43;5.03;;;14.10;99.90;;;;;;5035485;28;20025;-77
2023/08/09 00:04:43;;;;;;;9.50;5.43;;;14.10;99.90;;;;;;5036652;28;20029;-77
2023/08/09 00:07:09;;;;;;;10.38;5.00;;;14.10;99.90;;;;;;5036787;28;20037;-77
2023/08/09 00:09:35;;;;;;;11.55;4.82;;;14.10;99.90;;;;;;5036627;28;20025;-77
2023/08/09 00:12:00;;;;;;;10.45;5.85;;;14.20;99.90;;;;;;5035787;28;20018;-77
2023/08/09 00:14:26;;;;;;;11.63;4.88;;;14.20;99.90;;;;;;5036454;28;20065;-77
2023/08/09 00:16:51;;;;;;;10.32;5.35;;;14.20;99.90;;;;;;5035277;28;20017;-76
2023/08/09 00:19:17;;;;;;;9.93;5.13;;;15.00;99.90;;;;;;5035184;28;20024;-77
2023/08/09 00:21:43;;;;;;;11.35;5.15;;;14.20;99.90;;;;;;5036493;28;20052;-77
2023/08/09 00:24:08;;;;;;;10.55;5.55;;;14.20;99.90;;;;;;5035139;28;20106;-77
2023/08/09 00:26:34;;;;;;;8.85;4.93;;;14.20;99.90;;;;;;5036376;28;20395;-76
2023/08/09 00:28:59;;;;;;;10.88;5.38;;;14.20;99.90;;;;;;5035251;28;20014;-77
2023/08/09 00:31:25;;;;;;;11.43;5.25;;;14.10;99.90;;;;;;5036232;28;20022;-77
2023/08/09 00:33:50;;;;;;;9.73;5.50;;;14.10;99.90;;;;;;5036146;28;20048;-77
2023/08/09 00:36:16;;;;;;;12.82;6.03;;;14.10;99.90;;;;;;5036077;28;20025;-76
2023/08/09 00:38:43;;;;;;;23.80;6.38;;;14.10;99.90;;;;;;5036097;28;20037;-77
2023/08/09 00:41:08;;;;;;;11.15;5.22;;;14.00;99.90;;;;;;5034835;28;20555;-76
2023/08/09 00:43:34;;;;;;;10.02;5.10;;;14.00;99.90;;;;;;5036122;28;20018;-77
2023/08/09 00:45:59;;;;;;;11.18;5.03;;;13.90;99.90;;;;;;5035716;28;20061;-77
2023/08/09 00:48:25;;;;;;;9.20;4.75;;;13.90;99.90;;;;;;5034960;28;20071;-77
2023/08/09 00:50:51;;;;;;;9.82;4.25;;;13.80;99.90;;;;;;5034980;28;20029;-77
2023/08/09 00:53:17;;;;;;;10.30;4.93;;;13.70;99.90;;;;;;5035834;28;20092;-77
2023/08/09 00:55:42;;;;;;;10.38;5.32;;;13.70;99.90;;;;;;5034507;28;20059;-76
2023/08/09 00:58:08;;;;;;;13.32;5.65;;;13.60;99.90;;;;;;5036062;28;20022;-76
2023/08/09 01:00:34;;;;;;;11.98;5.32;;;13.60;99.90;;;;;;5034920;28;20128;-76
2023/08/09 01:03:00;;;;;;;12.10;6.28;;;13.70;99.90;;;;;;5034606;28;20068;-77
2023/08/09 01:05:32;;;;;;;10.07;5.20;;;13.60;99.90;;;;;;5035850;28;20100;-77
2023/08/09 01:08:09;;;;;;;10.35;4.80;;;13.60;99.90;;;;;;5034306;28;20025;-77
2023/08/09 01:10:57;;;;;;;16.35;5.22;;;13.60;99.90;;;;;;5035503;28;20029;-77
2023/08/09 01:13:24;;;;;;;10.40;4.68;;;13.60;99.90;;;;;;5034267;28;20026;-77
2023/08/09 01:15:51;;;;;;;9.90;4.53;;;13.60;99.90;;;;;;5034015;28;20107;-76
2023/08/09 01:18:17;;;;;;;11.13;4.90;;;14.00;99.90;;;;;;5035268;28;20477;-77
2023/08/09 01:20:44;;;;;;;10.15;4.32;;;13.50;99.90;;;;;;5035275;28;20072;-77
2023/08/09 01:23:19;;;;;;;13.25;5.30;;;13.50;99.90;;;;;;5034006;28;20033;-77
2023/08/09 01:25:44;;;;;;;8.77;4.57;;;13.50;99.90;;;;;;5035225;28;20041;-77
2023/08/09 01:28:10;;;;;;;9.02;4.50;;;13.50;99.90;;;;;;5035132;28;20065;-76
2023/08/09 01:30:37;;;;;;;8.88;4.20;;;13.50;99.90;;;;;;5033878;28;20366;-77
2023/08/09 01:33:03;;;;;;;10.25;4.05;;;13.50;99.90;;;;;;5034008;28;20029;-77
2023/08/09 01:35:34;;;;;;;10.30;4.88;;;13.50;99.90;;;;;;5034925;28;20053;-77
2023/08/09 01:38:05;;;;;;;9.52;4.40;;;13.60;99.90;;;;;;5035310;28;20501;-77
2023/08/09 01:40:31;;;;;;;11.95;4.55;;;13.60;99.90;;;;;;5035679;28;20021;-77
2023/08/09 01:42:58;;;;;;;10.10;4.72;;;13.60;99.90;;;;;;5034893;28;20029;-76
2023/08/09 01:45:25;;;;;;;9.70;4.18;;;13.70;99.90;;;;;;5034952;28;20059;-76
2023/08/09 01:47:51;;;;;;;8.15;3.83;;;13.70;99.90;;;;;;5034803;28;20021;-77
2023/08/09 01:50:22;;;;;;;11.55;4.70;;;13.70;99.90;;;;;;5033425;28;20095;-76
2023/08/09 01:52:49;;;;;;;9.05;4.50;;;13.60;99.90;;;;;;5033369;28;20025;-76
2023/08/09 01:55:17;;;;;;;9.93;4.47;;;13.60;99.90;;;;;;5034478;28;20048;-77
2023/08/09 01:57:44;;;;;;;7.38;4.50;;;13.60;99.90;;;;;;5034302;28;20370;-77
2023/08/09 02:00:11;;;;;;;8.23;4.13;;;13.50;99.90;;;;;;5034491;28;20026;-77
2023/08/09 02:02:40;;;;;;;9.93;4.75;;;13.50;99.90;;;;;;5035012;28;20014;-77
2023/08/09 02:05:06;;;;;;;7.18;3.58;;;14.80;99.90;;;;;;5034400;28;20034;-76
2023/08/09 02:07:31;;;;;;;8.18;3.53;;;13.40;99.90;;;;;;5033214;28;20171;-77
2023/08/09 02:09:57;;;;;;;9.23;4.70;;;13.30;99.90;;;;;;5034856;28;20032;-77
2023/08/09 02:12:22;;;;;;;7.82;3.83;;;13.30;99.90;;;;;;5033130;28;20425;-77
2023/08/09 02:14:48;;;;;;;8.10;3.90;;;13.30;99.90;;;;;;5032791;28;20112;-77
2023/08/09 02:17:13;;;;;;;8.40;4.28;;;13.20;99.90;;;;;;5034242;28;20115;-76
2023/08/09 02:19:39;;;;;;;9.93;4.45;;;13.10;99.90;;;;;;5032930;28;20026;-77
2023/08/09 02:22:04;;;;;;;10.98;4.50;;;13.10;99.90;;;;;;5034107;28;20020;-77
2023/08/09 02:24:30;;;;;;;9.07;3.75;;;13.10;99.90;;;;;;5034058;28;20021;-77
2023/08/09 02:26:55;;;;;;;9.25;3.90;;;13.00;99.90;;;;;;5034020;28;20049;-76
2023/08/09 02:29:21;;;;;;;8.13;4.18;;;13.00;99.90;;;;;;5033916;28;20018;-77
2023/08/09 02:31:46;;;;;;;14.55;5.05;;;12.90;99.90;;;;;;5033716;28;20022;-77
2023/08/09 02:34:12;;;;;;;8.50;4.60;;;12.90;99.90;;;;;;5032869;28;20112;-77
2023/08/09 02:36:38;;;;;;;10.75;5.07;;;12.80;99.90;;;;;;5032527;28;20021;-77
2023/08/09 02:39:05;;;;;;;11.50;5.47;;;12.80;99.90;;;;;;5032607;28;20040;-77
2023/08/09 02:41:30;;;;;;;13.77;5.60;;;13.40;99.90;;;;;;5033848;28;20101;-77
2023/08/09 02:43:56;;;;;;;11.45;5.25;;;12.80;99.90;;;;;;5032420;28;20159;-77
2023/08/09 02:46:22;;;;;;;13.02;5.28;;;12.80;99.90;;;;;;5033805;28;20025;-77
2023/08/09 02:48:47;;;;;;;18.08;6.00;;;12.80;99.90;;;;;;5033662;28;20064;-76
2023/08/09 02:51:13;;;;;;;24.58;6.00;;;12.80;99.90;;;;;;5033663;28;20021;-77
2023/08/09 02:54:00;;;;;;;64.45;8.70;;;12.90;99.90;;;;;;5033775;28;20116;-77
2023/08/09 02:56:26;;;;;;;78.18;8.00;;;13.00;99.90;;;;;;5032211;28;20503;-77
2023/08/09 02:58:52;;;;;;;80.18;9.45;;;13.10;99.90;;;;;;5033453;28;20022;-77
2023/08/09 03:01:21;;;;;;;69.70;7.47;;;13.10;99.90;;;;;;5033616;28;20095;-77
2023/08/09 03:03:47;;;;;;;29.08;6.93;;;13.20;99.90;;;;;;5033460;28;20028;-77
2023/08/09 03:06:13;;;;;;;65.82;8.48;;;13.20;99.90;;;;;;5033625;28;20036;-77
2023/08/09 03:08:39;;;;;;;40.55;7.03;;;13.20;99.90;;;;;;5032248;28;20018;-76
2023/08/09 03:11:04;;;;;;;62.55;8.77;;;13.20;99.90;;;;;;5032808;28;20053;-77
2023/08/09 03:13:30;;;;;;;40.78;8.80;;;13.20;99.90;;;;;;5033379;28;20030;-77
2023/08/09 03:15:55;;;;;;;61.45;7.82;;;13.30;99.90;;;;;;5032010;28;20025;-77
2023/08/09 03:18:21;;;;;;;43.70;8.30;;;13.30;99.90;;;;;;5033422;28;20017;-77
2023/08/09 03:20:47;;;;;;;50.47;8.45;;;13.30;99.90;;;;;;5033213;28;20025;-76
2023/08/09 03:23:13;;;;;;;44.40;6.85;;;13.50;99.90;;;;;;5033290;28;20032;-77
2023/08/09 03:25:39;;;;;;;59.88;8.85;;;13.40;99.90;;;;;;5033123;28;20370;-77
2023/08/09 03:28:04;;;;;;;58.00;8.80;;;13.40;99.90;;;;;;5033305;28;20018;-77
2023/08/09 03:30:30;;;;;;;83.60;9.20;;;13.40;99.90;;;;;;5033788;28;20415;-77
2023/08/09 03:32:56;;;;;;;30.50;6.90;;;13.40;99.90;;;;;;5033069;28;20128;-77
2023/08/09 03:35:21;;;;;;;33.55;7.53;;;13.50;99.90;;;;;;5033106;28;20033;-77
2023/08/09 03:37:47;;;;;;;53.88;8.63;;;13.40;99.90;;;;;;5032081;28;20389;-77
2023/08/09 03:40:13;;;;;;;75.60;8.85;;;13.50;99.90;;;;;;5033608;28;20021;-77
2023/08/09 03:42:42;;;;;;;41.05;7.65;;;13.50;99.90;;;;;;5033459;28;20096;-77
2023/08/09 03:45:08;;;;;;;66.03;9.40;;;13.50;99.90;;;;;;5031948;28;20026;-77
2023/08/09 03:47:35;;;;;;;41.45;6.65;;;13.60;99.90;;;;;;5032990;28;20116;-76
2023/08/09 03:50:01;;;;;;;65.25;8.73;;;13.60;99.90;;;;;;5031689;28;20436;-76
2023/08/09 03:52:26;;;;;;;64.85;8.23;;;13.60;99.90;;;;;;5032870;28;20021;-77
2023/08/09 03:54:52;;;;;;;32.38;7.07;;;13.60;99.90;;;;;;5032841;28;20041;-77
2023/08/09 03:57:21;;;;;;;56.38;7.07;;;13.50;99.90;;;;;;5032883;28;20048;-76
2023/08/09 03:59:47;;;;;;;63.00;8.68;;;13.60;99.90;;;;;;5032878;28;20025;-77
2023/08/09 04:02:13;;;;;;;64.65;9.07;;;13.60;99.90;;;;;;5033388;28;20432;-77
2023/08/09 04:04:39;;;;;;;73.78;9.75;;;13.60;99.90;;;;;;5032788;28;20025;-77
2023/08/09 04:07:07;;;;;;;54.42;8.60;;;13.60;99.90;;;;;;5032988;28;20033;-77
2023/08/09 04:09:33;;;;;;;122.38;11.38;;;13.50;99.90;;;;;;5032829;28;20484;-77
2023/08/09 04:11:59;;;;;;;48.67;7.88;;;13.60;99.90;;;;;;5032789;28;20057;-77
2023/08/09 04:14:26;;;;;;;65.25;7.57;;;13.50;99.90;;;;;;5033182;28;20032;-77
2023/08/09 04:16:51;;;;;;;59.95;7.80;;;13.60;99.90;;;;;;5032688;28;20033;-76
2023/08/09 04:19:17;;;;;;;50.95;9.07;;;13.60;99.90;;;;;;5032626;28;20358;-77
2023/08/09 04:21:42;;;;;;;64.15;9.43;;;13.50;99.90;;;;;;5034757;28;20465;-77
2023/08/09 04:24:12;;;;;;;63.92;9.70;;;13.60;99.90;;;;;;5036248;28;20026;-76
2023/08/09 04:26:38;;;;;;;45.40;8.55;;;13.60;99.90;;;;;;5035122;28;20092;-76
2023/08/09 04:29:04;;;;;;;30.77;8.35;;;13.60;99.90;;;;;;5037037;28;20108;-77
2023/08/09 04:31:29;;;;;;;22.13;7.03;;;13.60;99.90;;;;;;5036226;28;20025;-77
2023/08/09 04:33:55;;;;;;;21.67;8.75;;;13.60;99.90;;;;;;5036185;28;20029;-77
2023/08/09 04:36:20;;;;;;;22.42;9.00;;;13.60;99.90;;;;;;5034869;28;20103;-77
2023/08/09 04:38:46;;;;;;;20.20;8.00;;;13.60;99.90;;;;;;5036013;28;20432;-76
2023/08/09 04:41:12;;;;;;;20.48;8.77;;;13.60;99.90;;;;;;5036003;28;20053;-77
2023/08/09 04:43:44;;;;;;;25.20;7.78;;;13.60;99.90;;;;;;5035997;28;20010;-77
2023/08/09 04:46:11;;;;;;;20.98;8.02;;;13.60;99.90;;;;;;5036549;28;20036;-76
2023/08/09 04:48:38;;;;;;;27.92;8.18;;;13.70;99.90;;;;;;5036022;28;20497;-77
2023/08/09 04:51:04;;;;;;;44.95;9.43;;;13.80;99.90;;;;;;5035796;28;20025;-77
2023/08/09 04:53:29;;;;;;;24.27;8.57;;;13.80;99.90;;;;;;5035939;28;20033;-77
2023/08/09 04:55:55;;;;;;;24.92;8.07;;;13.80;99.90;;;;;;5035778;28;20025;-77
2023/08/09 04:58:21;;;;;;;23.08;9.38;;;13.80;99.90;;;;;;5035632;28;20473;-77
2023/08/09 05:00:46;;;;;;;28.63;9.05;;;13.80;99.90;;;;;;5035646;28;20029;-77
2023/08/09 05:03:12;;;;;;;21.60;8.60;;;13.80;99.90;;;;;;5035670;28;20029;-77
2023/08/09 05:05:37;;;;;;;28.50;8.45;;;13.90;99.90;;;;;;5035643;28;20197;-77
2023/08/09 05:08:03;;;;;;;19.17;8.05;;;13.90;99.90;;;;;;5034356;28;20053;-77
2023/08/09 05:10:29;;;;;;;26.35;8.82;;;13.90;99.90;;;;;;5034189;28;20029;-77
2023/08/09 05:12:55;;;;;;;17.10;8.32;;;14.00;99.90;;;;;;5035498;28;20052;-77
2023/08/09 05:15:20;;;;;;;21.35;8.27;;;14.00;99.90;;;;;;5035238;28;20048;-76
2023/08/09 05:17:46;;;;;;;20.75;7.45;;;14.00;99.90;;;;;;5035383;28;20029;-77
2023/08/09 05:20:12;;;;;;;19.83;8.70;;;14.00;99.90;;;;;;5034125;28;20108;-77
2023/08/09 05:22:38;;;;;;;18.45;8.27;;;14.10;99.90;;;;;;5033958;28;20104;-77
2023/08/09 05:25:04;;;;;;;19.05;8.75;;;14.10;99.90;;;;;;5033850;28;20053;-77
2023/08/09 05:27:29;;;;;;;16.10;7.88;;;14.20;99.90;;;;;;5035068;28;20026;-77
2023/08/09 05:29:55;;;;;;;15.00;7.32;;;14.30;99.90;;;;;;5035144;28;20028;-77
2023/08/09 05:32:21;;;;;;;18.88;8.90;;;14.30;99.90;;;;;;5035046;28;20040;-77
2023/08/09 05:34:47;;;;;;;17.02;7.50;;;14.40;99.90;;;;;;5033229;28;20021;-76
2023/08/09 05:37:13;;;;;;;17.05;8.10;;;14.50;99.90;;;;;;5033719;28;20484;-77
2023/08/09 05:39:38;;;;;;;16.48;7.32;;;14.60;99.90;;;;;;5033680;28;20022;-77
2023/08/09 05:42:04;;;;;;;17.27;7.55;;;14.60;99.90;;;;;;5034815;28;20021;-77
2023/08/09 05:44:30;;;;;;;14.80;6.93;;;14.70;99.90;;;;;;5034774;28;20018;-77
2023/08/09 05:46:56;;;;;;;14.05;7.35;;;14.70;99.90;;;;;;5034772;28;20108;-77
2023/08/09 05:49:24;;;;;;;15.55;8.10;;;14.90;99.90;;;;;;5034837;28;20026;-76
2023/08/09 05:51:50;;;;;;;15.45;7.03;;;14.90;99.90;;;;;;5034687;28;20496;-77
2023/08/09 05:54:16;;;;;;;14.68;7.35;;;14.90;99.90;;;;;;5034576;28;20017;-77
2023/08/09 05:56:42;;;;;;;14.50;6.75;;;15.00;99.90;;;;;;5035029;28;20037;-77
2023/08/09 05:59:07;;;;;;;11.70;6.38;;;15.00;99.90;;;;;;5033203;28;20034;-77
2023/08/09 06:01:33;;;;;;;13.38;7.38;;;15.10;99.90;;;;;;5034462;28;20072;-77
2023/08/09 06:03:58;;;;;;;14.23;7.18;;;15.10;99.90;;;;;;5033164;28;20108;-77
2023/08/09 06:06:24;;;;;;;13.07;6.57;;;15.10;99.90;;;;;;5033133;28;20017;-77
2023/08/09 06:08:50;;;;;;;13.82;6.50;;;15.10;99.90;;;;;;5034416;28;20025;-77
2023/08/09 06:11:16;;;;;;;12.75;6.30;;;15.10;99.90;;;;;;5034346;28;20029;-77
2023/08/09 06:13:41;;;;;;;13.07;7.05;;;15.10;99.90;;;;;;5034165;28;20489;-77
2023/08/09 06:16:07;;;;;;;11.85;6.47;;;15.10;99.90;;;;;;5034168;28;20107;-77
2023/08/09 06:18:32;;;;;;;12.63;5.93;;;15.40;99.90;;;;;;5034713;28;20068;-76
2023/08/09 06:20:58;;;;;;;15.32;7.20;;;15.30;99.90;;;;;;5034070;28;20025;-77
2023/08/09 06:23:27;;;;;;;13.60;6.18;;;15.40;99.90;;;;;;5034601;28;20017;-77
2023/08/09 06:25:53;;;;;;;11.63;6.03;;;15.50;99.90;;;;;;5032707;28;20496;-76
2023/08/09 06:28:19;;;;;;;13.10;5.55;;;15.60;99.90;;;;;;5032767;28;20017;-76
2023/08/09 06:30:45;;;;;;;13.75;6.15;;;15.70;99.90;;;;;;5034005;28;20040;-77
2023/08/09 06:33:11;;;;;;;11.48;5.47;;;15.80;99.90;;;;;;5033875;28;20018;-77
2023/08/09 06:35:37;;;;;;;11.57;5.57;;;15.90;99.90;;;;;;5033692;28;20029;-77
2023/08/09 06:38:03;;;;;;;10.35;4.93;;;16.00;99.90;;;;;;5032498;28;20029;-77
2023/08/09 06:40:28;;;;;;;8.82;4.28;;;16.10;99.90;;;;;;5032490;28;20089;-77
2023/08/09 06:42:54;;;;;;;7.68;4.50;;;16.10;99.90;;;;;;5034234;28;20018;-76
2023/08/09 06:45:19;;;;;;;8.98;4.18;;;16.10;99.90;;;;;;5032771;28;20025;-77
2023/08/09 06:47:45;;;;;;;10.48;4.65;;;16.00;99.90;;;;;;5033604;28;20365;-76
2023/08/09 06:50:10;;;;;;;8.80;4.50;;;16.00;99.90;;;;;;5033686;28;20345;-77
2023/08/09 06:52:37;;;;;;;8.23;4.68;;;16.10;99.90;;;;;;5032403;28;20494;-77
2023/08/09 06:55:07;;;;;;;8.70;4.18;;;16.20;99.90;;;;;;5033339;28;20521;-76
2023/08/09 06:57:34;;;;;;;10.75;4.10;;;16.40;99.90;;;;;;5033553;28;20400;-77
2023/08/09 07:00:00;;;;;;;7.53;4.10;;;16.60;99.90;;;;;;5033414;28;20025;-77
2023/08/09 07:02:26;;;;;;;7.47;3.70;;;16.70;99.90;;;;;;5032131;28;20040;-77
2023/08/09 07:04:54;;;;;;;5.50;3.28;;;17.00;99.90;;;;;;5033640;28;20385;-77
2023/08/09 07:07:21;;;;;;;8.15;3.40;;;17.00;99.90;;;;;;5032006;28;20025;-77
2023/08/09 07:09:46;;;;;;;4.30;2.80;;;17.20;99.90;;;;;;5033339;28;20036;-76
2023/08/09 07:12:15;;;;;;;4.07;2.72;;;17.00;99.90;;;;;;5032041;28;20034;-77
2023/08/09 07:14:40;;;;;;;7.63;3.40;;;17.00;99.90;;;;;;5033169;28;20078;-77
2023/08/09 07:17:07;;;;;;;6.55;2.95;;;17.20;99.90;;;;;;5032034;28;20469;-76
2023/08/09 07:19:32;;;;;;;6.78;3.08;;;17.30;99.90;;;;;;5032143;28;20025;-77
2023/08/09 07:21:58;;;;;;;4.07;2.30;;;17.60;99.90;;;;;;5033221;28;20028;-77
2023/08/09 07:24:24;;;;;;;7.15;2.97;;;17.70;99.90;;;;;;5033620;28;20095;-77
2023/08/09 07:26:49;;;;;;;6.00;2.97;;;17.90;99.90;;;;;;5033063;28;20473;-77
2023/08/09 07:29:15;;;;;;;5.35;2.53;;;18.20;99.90;;;;;;5033113;28;20033;-77
2023/08/09 07:31:40;;;;;;;6.65;2.63;;;18.30;99.90;;;;;;5033020;28;20033;-77
2023/08/09 07:34:06;;;;;;;9.27;2.28;;;18.50;99.90;;;;;;5031818;28;20026;-77
2023/08/09 07:36:31;;;;;;;4.30;2.10;;;18.50;99.90;;;;;;5031781;28;20018;-76
2023/08/09 07:38:58;;;;;;;3.33;1.83;;;18.50;99.90;;;;;;5033033;28;20032;-76
2023/08/09 07:41:24;;;;;;;3.45;1.90;;;18.30;99.90;;;;;;5033012;28;20022;-76
2023/08/09 07:43:49;;;;;;;3.47;1.80;;;18.40;99.90;;;;;;5031713;28;20025;-77
2023/08/09 07:46:15;;;;;;;5.22;2.30;;;18.20;99.90;;;;;;5032974;28;20072;-76
2023/08/09 07:48:41;;;;;;;5.50;2.15;;;18.20;99.90;;;;;;5033099;28;20543;-77
2023/08/09 07:51:11;;;;;;;4.05;2.00;;;18.30;99.90;;;;;;5033475;28;20033;-77
2023/08/09 07:53:40;;;;;;;4.25;1.65;;;18.20;99.90;;;;;;5033224;28;20473;-76
2023/08/09 07:56:05;;;;;;;8.38;1.23;;;18.30;99.90;;;;;;5032208;28;20392;-77
2023/08/09 07:58:31;;;;;;;1.45;1.10;;;18.30;99.90;;;;;;5035504;28;20017;-77
2023/08/09 08:00:56;;;;;;;3.53;1.67;;;18.30;99.90;;;;;;5036859;28;20026;-77
2023/08/09 08:03:22;;;;;;;1.80;0.73;;;18.30;99.90;;;;;;5036974;28;20021;-77
2023/08/09 08:05:47;;;;;;;2.83;0.70;;;18.30;99.90;;;;;;5035443;28;20136;-76
2023/08/09 08:08:14;;;;;;;1.83;0.68;;;18.30;99.90;;;;;;5035481;28;20026;-77
2023/08/09 08:10:41;;;;;;;6.53;1.13;;;18.50;99.90;;;;;;5036781;28;20109;-77
2023/08/09 08:13:06;;;;;;;3.70;0.57;;;18.20;99.90;;;;;;5036787;28;20439;-77
2023/08/09 08:15:32;;;;;;;2.13;0.85;;;18.10;99.90;;;;;;5036590;28;20041;-76
2023/08/09 08:17:57;;;;;;;5.43;1.15;;;18.20;99.90;;;;;;5036658;28;20044;-77
2023/08/09 08:20:24;;;;;;;0.68;0.40;;;18.20;99.90;;;;;;5036579;28;20053;-77
2023/08/09 08:22:50;;;;;;;2.20;0.52;;;18.30;99.90;;;;;;5035230;28;20022;-77
2023/08/09 08:25:19;;;;;;;1.88;0.30;;;18.40;99.90;;;;;;5036422;28;20048;-76
2023/08/09 08:27:48;;;;;;;;;;;18.40;99.90;;;;;;5036767;28;20388;-77
2023/08/09 08:30:18;;;;;;;1.00;0.20;;;19.20;99.90;;;;;;5036813;28;19905;-77
2023/08/09 08:32:46;;;;;;;2.03;0.10;;;18.60;99.90;;;;;;5036296;28;20080;-77
2023/08/09 08:35:13;;;;;;;1.02;0.10;;;18.90;99.90;;;;;;5034926;28;20041;-77
2023/08/09 08:37:40;;;;;;;0.52;0.10;;;19.00;99.90;;;;;;5034877;28;20029;-77
2023/08/09 08:40:08;;;;;;;2.30;0.45;;;19.40;99.90;;;;;;5036163;28;20025;-77
2023/08/09 08:42:36;;;;;;;0.65;0.17;;;19.40;99.90;;;;;;5035980;28;20417;-77
2023/08/09 08:45:09;;;;;;;1.05;0.10;;;19.30;99.90;;;;;;5034786;28;20026;-76
2023/08/09 08:47:38;;;;;;;1.65;0.43;;;19.20;99.90;;;;;;5035970;28;20021;-77
2023/08/09 08:50:04;;;;;;;0.88;0.30;;;19.10;99.90;;;;;;5035980;28;20037;-76
2023/08/09 08:52:30;;;;;;;1.75;0.20;;;18.90;99.90;;;;;;5034624;28;20026;-76
2023/08/09 08:54:56;;;;;;;1.00;0.32;;;18.90;99.90;;;;;;5035656;28;20048;-76
2023/08/09 08:57:22;;;;;;;0.60;0.15;;;18.90;99.90;;;;;;5035793;28;20022;-77
2023/08/09 08:59:48;;;;;;;1.17;0.10;;;19.00;99.90;;;;;;5035624;28;20511;-77
2023/08/09 09:02:14;;;;;;;1.98;0.10;;;19.20;99.90;;;;;;5034487;28;20029;-77
2023/08/09 09:04:41;;;;;;;0.87;0.10;;;19.50;99.90;;;;;;5035898;28;20133;-75
2023/08/09 09:07:08;;;;;;;2.47;0.65;;;19.80;99.90;;;;;;5035609;28;20057;-77
2023/08/09 09:09:33;;;;;;;0.90;0.40;;;19.80;99.90;;;;;;5034691;28;20032;-77
2023/08/09 09:12:02;;;;;;;1.60;0.10;;;19.80;99.90;;;;;;5035518;28;20100;-77
2023/08/09 09:14:28;;;;;;;0.73;0.08;;;19.60;99.90;;;;;;5035401;28;20038;-76
2023/08/09 09:16:55;;;;;;;0.77;0.45;;;19.50;99.90;;;;;;5035356;28;20465;-76
2023/08/09 09:19:20;;;;;;;1.58;0.10;;;19.60;99.90;;;;;;5034237;28;20067;-76
2023/08/09 09:21:46;;;;;;;2.05;0.50;;;19.80;99.90;;;;;;5035538;28;20428;-77
2023/08/09 09:24:11;;;;;;;2.08;0.32;;;19.90;99.90;;;;;;5035391;28;20436;-76
2023/08/09 09:26:37;;;;;;;1.77;0.30;;;19.90;99.90;;;;;;5034316;28;20066;-77
2023/08/09 09:29:07;;;;;;;0.73;0.22;;;19.90;99.90;;;;;;5034053;28;20037;-77
2023/08/09 09:31:39;;;;;;;0.98;0.10;;;20.20;99.90;;;;;;5035559;28;20112;-77
2023/08/09 09:34:09;;;;;;;1.17;0.17;;;19.80;99.90;;;;;;5035264;28;20018;-77
2023/08/09 09:36:39;;;;;;;0.35;0.10;;;19.90;99.90;;;;;;5035364;28;20112;-77
2023/08/09 09:39:11;;;;;;;0.10;0.00;;;20.40;99.90;;;;;;5034015;28;20025;-77
2023/08/09 09:41:46;;;;;;;0.65;0.10;;;20.70;99.90;;;;;;5035194;28;20018;-77
2023/08/09 09:44:12;;;;;;;1.10;0.20;;;20.90;99.90;;;;;;5033967;28;20036;-75
2023/08/09 09:46:40;;;;;;;1.60;0.17;;;21.00;99.90;;;;;;5034962;28;20366;-76
2023/08/09 09:49:06;;;;;;;1.13;0.10;;;20.90;99.90;;;;;;5035604;28;20521;-77
2023/08/09 09:51:33;;;;;;;3.40;0.22;;;20.90;99.90;;;;;;5035088;28;20099;-76
2023/08/09 09:53:59;;;;;;;1.48;0.10;;;21.30;99.90;;;;;;5034604;28;20037;-76
2023/08/09 09:56:25;;;;;;;2.65;0.52;;;21.00;99.90;;;;;;5033286;28;20021;-77
2023/08/09 09:58:51;;;;;;;0.50;0.10;;;21.10;99.90;;;;;;5033459;28;20029;-76
2023/08/09 10:01:20;;;;;;;0.73;0.20;;;21.00;99.90;;;;;;5033507;28;20121;-76
2023/08/09 10:03:48;;;;;;;4.15;0.28;;;21.20;99.90;;;;;;5034679;28;20025;-77
2023/08/09 10:06:28;;;;;;;0.30;0.23;;;21.00;99.90;;;;;;5034864;28;20060;-77
2023/08/09 10:08:58;;;;;;;1.13;0.10;;;21.20;99.90;;;;;;5034133;28;20025;-77
2023/08/09 10:11:28;;;;;;;0.65;0.15;;;21.10;99.90;;;;;;5033080;28;20074;-76
2023/08/09 10:13:56;;;;;;;1.50;0.40;;;20.90;99.90;;;;;;5034353;28;20116;-77
2023/08/09 10:16:23;;;;;;;;;;;20.60;99.90;;;;;;5034895;28;20063;-77
2023/08/09 10:19:00;;;;;;;1.48;0.20;;;20.50;99.90;;;;;;5032985;28;19956;-76
2023/08/09 10:21:27;;;;;;;4.40;0.32;;;20.30;99.90;;;;;;5033211;28;20017;-77
2023/08/09 10:24:06;;;;;;;2.35;0.38;;;20.30;99.90;;;;;;5032815;28;20505;-76
2023/08/09 10:26:35;;;;;;;1.90;0.10;;;20.80;99.90;;;;;;5034216;28;20036;-77
2023/08/09 10:29:10;;;;;;;1.02;0.22;;;21.10;99.90;;;;;;5034222;28;20022;-77
2023/08/09 10:31:59;;;;;;;1.60;0.00;;;21.50;99.90;;;;;;5034061;28;20018;-76
2023/08/09 10:34:41;;;;;;;0.28;0.00;;;21.90;99.90;;;;;;5034861;28;20029;-76
2023/08/09 10:37:09;;;;;;;1.90;0.13;;;22.20;99.90;;;;;;5034145;28;20017;-77
2023/08/09 10:39:36;;;;;;;0.20;0.00;;;22.50;99.90;;;;;;5032691;28;20013;-77
2023/08/09 10:42:09;;;;;;;0.63;0.00;;;22.30;99.90;;;;;;5034195;28;20029;-77
2023/08/09 10:44:48;;;;;;;1.38;0.20;;;22.40;99.90;;;;;;5034339;28;20354;-76
2023/08/09 10:47:24;;;;;;;1.48;0.00;;;22.80;99.90;;;;;;5032541;28;20045;-76
2023/08/09 10:49:53;;;;;;;0.25;0.08;;;22.70;99.90;;;;;;5033668;28;20366;-76
2023/08/09 10:52:20;;;;;;;;;;;22.80;99.90;;;;;;5034179;28;20044;-76
2023/08/09 10:54:48;;;;;;;0.75;0.00;;;22.90;99.90;;;;;;5032324;28;19905;-76
2023/08/09 10:57:14;;;;;;;0.52;0.10;;;22.60;99.90;;;;;;5033694;28;20071;-76
2023/08/09 10:59:43;;;;;;;2.22;0.00;;;22.40;99.90;;;;;;5033427;28;20032;-77
2023/08/09 11:02:09;;;;;;;3.33;0.00;;;22.20;99.90;;;;;;5032399;28;20022;-76
2023/08/09 11:04:35;;;;;;;0.60;0.00;;;22.40;99.90;;;;;;5033307;28;20018;-76
2023/08/09 11:07:01;;;;;;;0.57;0.00;;;22.50;99.90;;;;;;5033668;28;20041;-76
2023/08/09 11:09:31;;;;;;;0.00;0.00;;;22.50;99.90;;;;;;5033455;28;20017;-76
2023/08/09 11:11:57;;;;;;;0.63;0.00;;;22.50;99.90;;;;;;5033287;28;20029;-76
2023/08/09 11:14:23;;;;;;;1.75;0.28;;;22.70;99.90;;;;;;5033222;28;20080;-77
2023/08/09 11:16:50;;;;;;;0.45;0.00;;;23.10;99.90;;;;;;5033748;28;20112;-77
2023/08/09 11:19:17;;;;;;;4.57;0.35;;;23.30;99.90;;;;;;5031961;28;20370;-76
2023/08/09 11:21:52;;;;;;;6.90;0.05;;;23.10;99.90;;;;;;5032485;28;20041;-77
2023/08/09 11:24:21;;;;;;;2.17;0.13;;;22.90;99.90;;;;;;5033146;28;20025;-76
2023/08/09 11:26:48;;;;;;;0.95;0.00;;;23.20;99.90;;;;;;5033266;28;20485;-76
2023/08/09 11:29:15;;;;;;;0.90;0.15;;;23.00;99.90;;;;;;5032241;28;20030;-76
2023/08/09 11:31:46;;;;;;;2.20;0.10;;;23.20;99.90;;;;;;5033347;28;20060;-76
2023/08/09 11:34:14;;;;;;;2.40;0.10;;;23.50;99.90;;;;;;5033667;28;20025;-76
2023/08/09 11:36:40;;;;;;;1.08;0.17;;;23.70;99.90;;;;;;5033490;28;20029;-76
2023/08/09 11:39:08;;;;;;;2.30;0.20;;;23.60;99.90;;;;;;5033429;28;20025;-77
2023/08/09 11:41:50;;;;;;;0.55;0.00;;;23.70;99.90;;;;;;5031985;28;20026;-76
2023/08/09 11:44:20;;;;;;;2.83;0.40;;;23.80;99.90;;;;;;5031877;28;20090;-77
2023/08/09 11:46:46;;;;;;;0.65;0.00;;;24.10;99.90;;;;;;5033247;28;20034;-77
2023/08/09 11:49:12;;;;;;;0.30;0.00;;;24.50;99.90;;;;;;5032324;28;20036;-77
2023/08/09 11:51:38;;;;;;;1.33;0.00;;;24.40;99.90;;;;;;5033545;28;20489;-76
2023/08/09 11:54:08;;;;;;;0.45;0.00;;;24.50;99.90;;;;;;5032089;28;20029;-76
2023/08/09 11:56:35;;;;;;;0.50;0.00;;;24.40;99.90;;;;;;5032079;28;20456;-76
2023/08/09 11:59:02;;;;;;;0.77;0.00;;;24.30;99.90;;;;;;5033183;28;20489;-77
2023/08/09 12:01:39;;;;;;;2.13;0.00;;;24.70;99.90;;;;;;5031962;28;20087;-76
2023/08/09 12:04:10;;;;;;;0.00;0.00;;;24.70;99.90;;;;;;5032212;28;20026;-77
2023/08/09 12:06:38;;;;;;;0.73;0.00;;;24.90;99.90;;;;;;5032313;28;20477;-76
2023/08/09 12:09:23;;;;;;;;;;;25.00;99.90;;;;;;5032630;28;20037;-76
2023/08/09 12:11:49;;;;;;;0.30;0.00;;;25.10;99.90;;;;;;5031981;28;19906;-76
2023/08/09 12:14:14;;;;;;;0.75;0.00;;;25.10;99.90;;;;;;5031815;28;20021;-76
2023/08/09 12:16:40;;;;;;;1.85;0.22;;;25.00;99.90;;;;;;5032996;28;20087;-77
2023/08/09 12:19:05;;;;;;;0.32;0.00;;;24.40;99.90;;;;;;5033509;28;20021;-76
2023/08/09 12:21:31;;;;;;;0.60;0.00;;;24.60;99.90;;;;;;5032862;28;20469;-76
2023/08/09 12:23:56;;;;;;;2.40;0.00;;;24.80;99.90;;;;;;5032696;28;20448;-76
2023/08/09 12:26:22;;;;;;;0.00;0.00;;;25.00;99.90;;;;;;5032643;28;20049;-77
2023/08/09 12:28:48;;;;;;;3.40;0.00;;;25.20;99.90;;;;;;5032807;28;20032;-77
2023/08/09 12:31:14;;;;;;;1.30;0.00;;;25.40;99.90;;;;;;5031746;28;20060;-77
2023/08/09 12:33:39;;;;;;;1.45;0.00;;;25.60;99.90;;;;;;5032260;28;20400;-77
2023/08/09 12:36:05;;;;;;;0.20;0.00;;;25.80;98.10;;;;;;5032673;28;20111;-76
2023/08/09 12:38:31;;;;;;;0.90;0.00;;;25.90;98.80;;;;;;5032649;28;20026;-75
2023/08/09 12:40:56;;;;;;;1.15;0.15;;;25.90;98.30;;;;;;5032881;28;20041;-76
2023/08/09 12:43:22;;;;;;;0.77;0.00;;;26.00;98.50;;;;;;5032207;28;20029;-76